Latest Weather Observations for Whyalla

IDS60801

Issued at 7:31 pm CDT Wednesday 22 November 2017 (issued every 30 minutes, with the page automatically refreshed every 10 minutes)

About weather observations | Map of weather stations | Latest weather observations for SA | Other Formats
Station Details ID: 018120 Name: WHYALLA AERO Lat: -33.05 Lon: 137.52 Height: 9.3 m
Data from the previous 72 hours. | See also: Recent months at Whyalla
Date/Time
CDT
Temp
°C
App
Temp
°C
Dew
Point
°C
Rel
Hum
%
Delta-T
°C
Wind Press
QNH
hPa
Press
MSL
hPa
Rain since
9am
mm
Dir  Spd
km/h
Gust
km/h
Spd
kts
Gust
kts
22/07:30pm 21.6 23.6 17.8 79 2.4 ENE 4 9 2 5 1008.7 1008.6 0.2
22/07:00pm 21.4 22.7 17.0 76 2.7 NE 6 7 3 4 1008.5 1008.4 0.0
22/06:30pm 21.3 21.1 16.7 75 2.8 ENE 13 17 7 9 1009.3 1009.2 0.0
22/06:00pm 21.5 19.5 15.6 69 3.5 NE 20 30 11 16 1009.7 1009.6 0.0
22/05:30pm 20.5 18.5 16.5 78 2.4 NE 22 30 12 16 1011.2 1011.1 0.0
22/05:00pm 21.4 19.5 17.6 79 2.3 E 24 41 13 22 1010.2 1010.1 0.0
22/04:30pm 23.3 16.8 12.9 52 6.0 ENE 39 61 21 33 1011.0 1010.9 0.0
22/04:21pm 23.9 19.6 16.9 65 4.3 E 35 61 19 33 1011.0 1010.9 0.0
22/04:19pm 24.2 20.7 17.4 65 4.2 E 32 52 17 28 1010.9 1010.8 0.0
22/04:00pm 24.4 20.9 16.4 61 4.9 SE 30 39 16 21 1008.9 1008.8 0.0
22/03:30pm 26.3 23.4 17.1 57 5.7 S 28 37 15 20 1008.6 1008.5 0.0
22/03:00pm 28.7 26.4 16.6 48 7.6 S 24 32 13 17 1008.8 1008.7 0.0
22/02:30pm 29.3 27.3 13.9 39 9.2 WNW 17 28 9 15 1009.5 1009.4 0.0
22/02:00pm 30.3 26.1 13.6 36 10.0 W 28 41 15 22 1009.5 1009.4 0.0
22/01:30pm 29.8 26.7 13.5 36 9.7 WNW 22 32 12 17 1010.4 1010.3 0.0
22/01:00pm 29.9 25.6 13.2 36 9.9 WNW 28 37 15 20 1011.0 1010.9 0.0
22/12:30pm 30.9 27.0 13.2 34 10.6 WNW 26 37 14 20 1011.1 1011.0 0.0
22/12:00pm 30.0 26.7 14.1 37 9.6 WNW 24 33 13 18 1011.4 1011.3 0.0
22/11:30am 28.4 23.0 13.9 41 8.7 WNW 35 46 19 25 1011.8 1011.7 0.0
22/11:00am 29.4 23.1 12.3 34 10.0 NW 37 50 20 27 1011.5 1011.4 0.0
22/10:59am 29.3 23.4 12.3 35 9.9 NW 35 50 19 27 1011.4 1011.3 0.0
22/10:30am 30.6 25.0 12.0 32 10.9 NNW 33 44 18 24 1011.2 1011.1 0.0
22/10:00am 30.6 23.9 11.1 30 11.3 NNW 37 48 20 26 1010.9 1010.8 0.0
22/09:30am 31.4 24.2 9.0 25 12.6 NNW 37 50 20 27 1010.9 1010.8 0.0
22/09:16am 30.5 22.6 6.4 22 12.9 NNW 37 48 20 26 1010.9 1010.8 0.0
22/09:00am 31.6 26.5 5.9 20 13.7 NNW 22 30 12 16 1010.6 1010.5 0.0
22/08:30am 28.9 24.4 4.4 21 12.5 NW 17 24 9 13 1010.5 1010.4 0.0
22/08:00am 28.7 25.8 4.9 22 12.3 NW 9 15 5 8 1010.2 1010.1 0.0
22/07:30am 26.1 22.2 3.4 23 11.2 NW 13 19 7 10 1010.0 1009.9 0.0
22/07:00am 24.9 20.9 3.0 24 10.6 WNW 13 17 7 9 1009.6 1009.5 0.0
22/06:30am 24.4 21.1 2.5 24 10.5 NW 9 13 5 7 1009.1 1009.0 0.0
22/06:00am 27.4 22.2 3.8 22 11.9 NNE 20 32 11 17 1008.8 1008.7 0.0
22/05:30am 27.6 22.6 4.6 23 11.7 N 20 30 11 16 1008.4 1008.3 0.0
22/05:00am 27.4 22.4 3.8 22 11.8 NNE 19 26 10 14 1008.1 1008.0 0.0
22/04:30am 27.0 22.4 3.5 22 11.7 NNE 17 22 9 12 1007.9 1007.8 0.0
22/04:00am 27.1 22.4 2.9 21 11.9 NNE 17 22 9 12 1007.9 1007.8 0.0
22/03:43am 23.8 21.1 5.7 31 9.2 NNE 9 17 5 9 1008.0 1007.9 0.0
22/03:30am 18.7 16.0 2.5 34 7.5 NNE 6 9 3 5 1008.0 1007.9 0.0
22/03:00am 20.1 18.1 2.5 31 8.2 WNW 2 6 1 3 1008.1 1008.0 0.0
22/02:30am 23.0 19.4 0.8 23 10.2 NE 9 11 5 6 1008.3 1008.2 0.0
22/02:00am 25.2 21.7 1.3 21 11.3 NNE 9 13 5 7 1008.5 1008.4 0.0
22/01:30am 25.7 21.8 1.1 20 11.6 NNE 11 15 6 8 1008.7 1008.6 0.0
22/01:00am 25.3 22.0 2.7 23 11.0 NE 9 13 5 7 1009.0 1008.9 0.0
22/12:30am 26.5 23.2 4.3 24 11.2 NE 11 13 6 7 1009.3 1009.2 0.0
22/12:00am 26.3 22.8 3.5 23 11.3 NNE 11 15 6 8 1009.4 1009.3 0.0
 
Date/Time
CDT
Temp
°C
App
Temp
°C
Dew
Point
°C
Rel
Hum
%
Delta-T
°C
Wind Press
QNH
hPa
Press
MSL
hPa
Rain since
9am
mm
Dir  Spd
km/h
Gust
km/h
Spd
kts
Gust
kts
21/11:30pm 26.3 23.0 4.7 25 10.9 NNE 11 15 6 8 1009.7 1009.6 0.0
21/11:00pm 27.6 24.4 6.9 27 11.0 NE 13 17 7 9 1009.7 1009.6 0.0
21/10:30pm 27.0 23.7 6.4 27 10.8 NE 13 17 7 9 1009.7 1009.6 0.0
21/10:00pm 25.5 23.5 10.1 38 8.5 ENE 11 15 6 8 1009.8 1009.7 0.0
21/09:30pm 25.1 24.1 13.3 48 6.9 E 11 13 6 7 1009.6 1009.5 0.0
21/09:00pm 26.6 25.0 11.5 39 8.6 E 11 13 6 7 1009.4 1009.3 0.0
21/08:30pm 28.3 26.0 9.1 30 10.6 E 11 15 6 8 1009.2 1009.1 0.0
21/08:00pm 29.8 26.7 8.8 27 11.6 ESE 15 20 8 11 1009.0 1008.9 0.0
21/07:30pm 31.3 27.7 8.3 24 12.7 ESE 17 24 9 13 1008.7 1008.6 0.0
21/07:00pm 32.6 28.9 8.1 22 13.6 ESE 17 22 9 12 1008.6 1008.5 0.0
21/06:30pm 33.5 28.9 6.7 19 14.6 ESE 20 26 11 14 1008.5 1008.4 0.0
21/06:00pm 34.3 29.9 6.6 18 15.2 ESE 19 28 10 15 1008.6 1008.5 0.0
21/05:30pm 34.5 30.1 7.5 19 15.0 ESE 20 32 11 17 1008.7 1008.6 0.0
21/05:00pm 34.3 29.2 5.8 17 15.4 E 22 30 12 16 1008.9 1008.8 0.0
21/04:30pm 35.1 30.3 7.2 18 15.5 E 22 33 12 18 1009.0 1008.9 0.0
21/04:00pm 36.0 29.2 5.3 15 16.6 ENE 30 41 16 22 1009.2 1009.1 0.0
21/03:30pm 34.2 28.3 3.9 15 15.9 ENE 24 35 13 19 1009.6 1009.5 0.0
21/03:00pm 34.2 28.9 4.8 16 15.6 NE 22 32 12 17 1010.0 1009.9 0.0
21/02:30pm 34.4 28.7 5.0 16 15.7 ENE 24 37 13 20 1010.4 1010.3 0.0
21/02:00pm 34.5 28.8 5.0 16 15.7 ENE 24 35 13 19 1010.6 1010.5 0.0
21/01:30pm 34.6 30.1 6.0 17 15.5 NNE 19 32 10 17 1011.1 1011.0 0.0
21/01:00pm 34.9 29.1 6.2 17 15.6 NNE 26 39 14 21 1011.7 1011.6 0.0
21/12:30pm 34.6 29.3 6.8 18 15.3 NE 24 35 13 19 1012.1 1012.0 0.0
21/12:00pm 33.8 27.6 6.2 18 15.0 NNE 28 39 15 21 1012.4 1012.3 0.0
21/11:30am 34.0 27.2 7.1 19 14.8 NNE 32 44 17 24 1012.8 1012.7 0.0
21/11:00am 33.1 26.7 7.1 20 14.2 NNE 30 39 16 21 1013.0 1012.9 0.0
21/10:30am 32.8 26.6 6.2 19 14.3 NNE 28 44 15 24 1013.1 1013.0 0.0
21/10:00am 32.4 25.5 7.3 21 13.7 NNE 33 48 18 26 1013.2 1013.1 0.0
21/09:30am 31.5 24.6 6.5 21 13.4 NNE 32 44 17 24 1013.2 1013.1 0.0
21/09:00am 30.4 23.4 7.0 23 12.6 NNE 33 52 18 28 1013.3 1013.2 0.0
21/08:40am 30.1 24.2 7.3 24 12.3 NNE 28 50 15 27 1013.0 1012.9 0.0
21/08:30am 29.9 24.8 7.8 25 12.0 NNE 24 41 13 22 1013.1 1013.0 0.0
21/08:00am 29.2 23.0 7.7 26 11.7 NNE 30 43 16 23 1012.9 1012.8 0.0
21/07:30am 28.1 24.1 8.4 29 10.7 NNE 19 28 10 15 1012.8 1012.7 0.0
21/07:00am 26.4 23.9 8.4 32 9.7 NE 11 17 6 9 1012.7 1012.6 0.0
21/06:30am 24.8 22.4 8.7 36 8.7 NE 11 15 6 8 1012.4 1012.3 0.0
21/06:00am 22.4 20.4 8.5 41 7.4 NE 9 13 5 7 1012.1 1012.0 0.0
21/05:30am 22.5 20.6 9.0 42 7.2 NE 9 11 5 6 1011.7 1011.6 0.0
21/05:00am 22.3 20.6 8.4 41 7.3 NE 7 9 4 5 1011.4 1011.3 0.0
21/04:30am 23.8 21.5 9.0 39 8.0 NE 11 13 6 7 1011.4 1011.3 0.0
21/04:00am 24.8 22.0 8.7 36 8.7 NE 13 17 7 9 1011.3 1011.2 0.0
21/03:30am 25.2 23.1 9.9 38 8.4 NNE 11 15 6 8 1011.4 1011.3 0.0
21/03:00am 26.3 23.3 9.2 34 9.4 NNE 15 20 8 11 1011.3 1011.2 0.0
21/02:30am 27.3 24.4 9.6 33 9.8 NE 15 20 8 11 1011.4 1011.3 0.0
21/02:00am 27.5 24.1 9.3 32 10.0 NE 17 24 9 13 1011.5 1011.4 0.0
21/01:30am 26.8 24.7 9.6 34 9.5 NE 11 15 6 8 1011.7 1011.6 0.0
21/01:00am 23.9 23.1 12.8 49 6.4 NE 9 11 5 6 1011.8 1011.7 0.0
21/12:30am 24.9 24.4 12.5 46 7.1 E 7 9 4 5 1011.9 1011.8 0.0
21/12:00am 25.6 24.5 12.1 43 7.7 NE 9 11 5 6 1012.0 1011.9 0.0
 
Date/Time
CDT
Temp
°C
App
Temp
°C
Dew
Point
°C
Rel
Hum
%
Delta-T
°C
Wind Press
QNH
hPa
Press
MSL
hPa
Rain since
9am
mm
Dir  Spd
km/h
Gust
km/h
Spd
kts
Gust
kts
20/11:30pm 26.7 25.7 12.4 41 8.3 NE 9 15 5 8 1012.0 1011.9 0.0
20/11:00pm 25.4 24.6 12.9 45 7.3 ENE 9 15 5 8 1011.9 1011.8 0.0
20/10:30pm 24.6 25.8 13.8 51 6.3 CALM 0 0 0 0 1011.8 1011.7 0.0
20/10:00pm 25.6 26.0 15.3 53 6.2 ENE 7 9 4 5 1011.5 1011.4 0.0
20/09:30pm 26.6 26.7 14.4 47 7.3 ENE 7 11 4 6 1011.2 1011.1 0.0
20/09:00pm 27.1 27.0 13.4 42 8.1 E 6 7 3 4 1010.8 1010.7 0.0
20/08:30pm 27.2 27.0 13.5 42 8.1 E 7 11 4 6 1010.6 1010.5 0.0
20/08:00pm 28.9 27.4 11.9 35 9.9 ESE 11 17 6 9 1010.4 1010.3 0.0
20/07:30pm 30.0 28.0 11.5 32 10.7 ESE 13 20 7 11 1010.3 1010.2 0.0
20/07:00pm 30.8 28.5 11.7 31 11.1 ESE 15 22 8 12 1010.1 1010.0 0.0
20/06:30pm 31.0 28.5 12.4 32 11.0 SE 17 22 9 12 1009.8 1009.7 0.0
20/06:00pm 30.2 27.8 12.6 34 10.4 SE 17 30 9 16 1009.7 1009.6 0.0
20/05:30pm 33.2 30.5 11.7 27 12.7 E 17 24 9 13 1009.8 1009.7 0.0
20/05:00pm 34.4 31.3 8.9 21 14.5 ENE 15 26 8 14 1009.8 1009.7 0.0
20/04:30pm 34.2 30.1 8.8 21 14.4 E 20 30 11 16 1010.0 1009.9 0.0
20/04:00pm 35.1 31.2 9.5 21 14.7 ENE 20 30 11 16 1010.2 1010.1 0.0
20/03:30pm 35.8 31.1 9.3 20 15.2 ENE 24 35 13 19 1010.4 1010.3 0.0
20/03:00pm 34.4 29.4 9.6 22 14.2 E 26 35 14 19 1010.7 1010.6 0.0
20/02:30pm 32.4 27.4 11.0 27 12.4 E 28 39 15 21 1011.1 1011.0 0.0
20/02:00pm 35.7 31.8 10.7 22 14.7 NE 22 57 12 31 1011.4 1011.3 0.0
20/01:30pm 34.7 29.4 11.2 24 13.8 ENE 30 43 16 23 1011.6 1011.5 0.0
20/01:00pm 33.9 28.6 11.1 25 13.3 ENE 30 44 16 24 1011.9 1011.8 0.0
20/12:30pm 33.5 27.7 10.8 25 13.2 ENE 32 46 17 25 1012.2 1012.1 0.0
20/12:29pm 33.5 27.7 10.8 25 13.2 ENE 32 46 17 25 1012.2 1012.1 0.0
20/12:00pm 34.2 31.0 10.1 23 13.9 NNE 17 26 9 14 1012.5 1012.4 0.0
20/11:30am 33.9 29.4 9.9 23 13.8 N 24 35 13 19 1012.8 1012.7 0.0
20/11:00am 33.7 29.3 10.3 24 13.5 NNE 24 35 13 19 1013.0 1012.9 0.0
20/10:30am 32.9 27.9 10.9 26 12.8 NNE 28 37 15 20 1013.1 1013.0 0.0
20/10:00am 32.2 27.2 10.8 27 12.4 NNE 28 39 15 21 1013.3 1013.2 0.0
20/09:30am 31.4 25.6 10.7 28 11.9 NNE 32 43 17 23 1013.5 1013.4 0.0
20/09:00am 30.6 25.3 11.1 30 11.2 NNE 30 43 16 23 1013.6 1013.6 0.0
20/08:30am 29.8 24.9 11.3 32 10.7 NNE 28 39 15 21 1013.5 1013.4 0.0
20/08:00am 28.7 25.2 10.8 33 10.2 NE 20 32 11 17 1013.3 1013.2 0.0
20/07:30am 27.5 24.5 10.7 35 9.5 NE 17 28 9 15 1013.2 1013.1 0.0
20/07:18am 24.6 24.3 13.2 49 6.6 E 7 11 4 6 1013.1 1013.0 0.0
20/07:00am 19.6 20.4 12.4 63 4.0 CALM 0 0 0 0 1012.9 1012.8 0.0
20/06:30am 17.2 16.8 11.2 68 3.2 WSW 4 7 2 4 1012.7 1012.6 0.0
20/06:00am 16.2 16.0 10.3 68 3.1 NW 2 7 1 4 1012.3 1012.2 0.0
20/05:30am 16.6 16.7 10.2 66 3.4 CALM 0 0 0 0 1011.9 1011.8 0.0
20/05:00am 16.3 16.3 9.9 66 3.4 CALM 0 0 0 0 1011.7 1011.6 0.0
20/04:30am 16.8 16.8 9.7 63 3.7 CALM 0 0 0 0 1011.7 1011.6 0.0
20/04:00am 17.3 17.0 10.2 63 3.8 S 2 9 1 5 1011.5 1011.4 0.0
20/03:30am 18.0 17.5 10.6 62 4.0 SSE 4 7 2 4 1011.6 1011.5 0.0
20/03:00am 18.2 18.3 10.1 59 4.3 CALM 0 0 0 0 1011.5 1011.4 0.0
20/02:30am 18.4 18.5 10.0 58 4.5 CALM 0 4 0 2 1011.7 1011.6 0.0
20/02:00am 19.1 18.1 10.4 57 4.7 W 6 6 3 3 1011.6 1011.5 0.0
20/01:30am 19.0 18.0 10.3 57 4.7 NW 6 7 3 4 1011.7 1011.6 0.0
20/01:00am 18.9 18.0 10.7 59 4.4 NW 6 9 3 5 1011.7 1011.6 0.0
20/12:30am 19.3 19.7 11.1 59 4.5 CALM 0 0 0 0 1011.8 1011.7 0.0
20/12:00am 19.5 19.5 11.3 59 4.5 NNW 2 7 1 4 1011.9 1011.8 0.0
 
Date/Time
CDT
Temp
°C
App
Temp
°C
Dew
Point
°C
Rel
Hum
%
Delta-T
°C
Wind Press
QNH
hPa
Press
MSL
hPa
Rain since
9am
mm
Dir  Spd
km/h
Gust
km/h
Spd
kts
Gust
kts
19/11:30pm 20.2 19.5 11.9 59 4.6 W 7 11 4 6 1011.8 1011.7 0.0
19/11:00pm 20.9 20.6 12.6 59 4.7 SSW 6 7 3 4 1011.8 1011.7 0.0
19/10:30pm 21.2 20.6 13.4 61 4.5 S 9 9 5 5 1011.8 1011.7 0.0
19/10:00pm 21.3 21.1 13.7 62 4.4 SSW 7 7 4 4 1011.6 1011.5 0.0
19/09:30pm 21.6 21.7 14.0 62 4.4 SW 6 7 3 4 1011.6 1011.5 0.0
19/09:00pm 22.1 22.3 14.2 61 4.6 SSW 6 9 3 5 1011.4 1011.3 0.0
19/08:30pm 22.8 22.5 14.4 59 4.9 SW 9 11 5 6 1011.1 1011.0 0.0
19/08:00pm 23.0 23.2 14.6 59 5.0 S 7 11 4 6 1010.9 1010.8 0.0

Other Formats:

Comma delimited format used in spreadsheet applications
http://www.bom.gov.au/fwo/IDS60801/IDS60801.95664.axf

JavaScript Object Notation format (JSON) in row-major order
http://www.bom.gov.au/fwo/IDS60801/IDS60801.95664.json